Etusivu
METAR-TAF:

METAR-TAF

Lentoasemat :

Clarion Municipal Airport

Clarion, Iowa, Yhdysvallat

Leveyspiiri: 42-45N, Pituuspiiri: 093-46W, korkeus merenpinnasta: 354 m

Tämänhetkinen sää

Tämä raportti tehtiin 27 minuuttia sitten, kello 16.55 UTC
Tuuli 10 kn pohjoisesta/koillisesta
Lämpötila 30°C
Kosteus 31%
Ilmanpaine 1012 hPa
Näkyvyys: 16.1 km
selkeää

METAR: KCAV 031655Z AUTO 02010KT 10SM CLR 30/11 A2987 RMK A01

Aika: 12:22 (17:22 UTC)


TAF: puuttuu

Säähavainnot ja -ennusteet yli 4000 lentoasemalta (METAR- ja TAF-raportit).

Käytössä olevat sääasemat on merkitty karttaan keltaisilla ja punaisilla pisteillä.

Aseta hiiri pisteen päälle nähdäksesi sääaseman nimen.

Klikkaa sitten nähdäksesi säähavainnot ja -ennusteet.

Kartan vaihtaminen: klikkaa mustalla rastilla varustettuja vihreitä pisteitä, niin voit zoomata sisään; viivalla varustettua vihreää pistettä, niin voit zoomata ulos tai vihreitä nuolia, niin pääset viereisille kartoille.


METAR-TAF: